Time;durP1;ratioP1;P1;durP2;ratioP2;P2;SDS_P1;SDS_P2;PMS_P1;PMS_P2;Temp;Humidity;BMP_temperature;BMP_pressure;BME280_temperature;BME280_humidity;BME280_pressure;Samples;Min_cycle;Max_cycle;Signal;HPM_P1;HPM_P2
2023/07/31 00:02:14;;;;;;;4.07;1.97;;;23.70;49.00;;;;;;5026751;28;20243;-45
2023/07/31 00:04:40;;;;;;;3.30;1.80;;;23.70;49.00;;;;;;5031374;28;20452;-45
2023/07/31 00:07:06;;;;;;;3.03;1.97;;;23.70;49.00;;;;;;5028089;28;20650;-44
2023/07/31 00:09:32;;;;;;;3.70;2.13;;;23.70;48.90;;;;;;5028027;28;20745;-44
2023/07/31 00:11:58;;;;;;;3.20;2.17;;;23.70;48.90;;;;;;5025943;28;20441;-44
2023/07/31 00:14:24;;;;;;;3.80;2.23;;;23.60;49.10;;;;;;5019313;28;20444;-44
2023/07/31 00:16:49;;;;;;;3.10;1.93;;;23.60;49.20;;;;;;5026704;28;20311;-45
2023/07/31 00:19:15;;;;;;;3.73;2.30;;;23.50;49.40;;;;;;5026868;28;20219;-48
2023/07/31 00:21:41;;;;;;;3.40;2.00;;;23.50;49.60;;;;;;5024081;28;20186;-49
2023/07/31 00:24:06;;;;;;;5.20;1.87;;;23.50;49.40;;;;;;5023796;28;20193;-49
2023/07/31 00:26:32;;;;;;;6.60;2.10;;;23.50;49.40;;;;;;5021407;28;20197;-48
2023/07/31 00:28:57;;;;;;;3.97;1.90;;;23.50;49.40;;;;;;5028440;28;20194;-49
2023/07/31 00:31:23;;;;;;;3.13;1.97;;;23.60;49.50;;;;;;5021412;28;20205;-51
2023/07/31 00:33:49;;;;;;;3.33;2.13;;;23.60;49.60;;;;;;5028382;28;20559;-49
2023/07/31 00:36:15;;;;;;;2.30;1.87;;;23.50;49.50;;;;;;5027423;28;20492;-48
2023/07/31 00:38:40;;;;;;;6.70;1.80;;;23.30;49.60;;;;;;5025502;28;20293;-46
2023/07/31 00:41:06;;;;;;;6.37;2.00;;;23.20;49.80;;;;;;5028370;28;20220;-47
2023/07/31 00:43:34;;;;;;;4.37;2.07;;;22.90;50.60;;;;;;5018844;28;20224;-49
2023/07/31 00:46:00;;;;;;;4.00;2.33;;;22.50;51.30;;;;;;5024332;28;20186;-51
2023/07/31 00:48:26;;;;;;;2.50;1.90;;;22.40;51.60;;;;;;5019007;28;20432;-50
2023/07/31 00:50:51;;;;;;;2.43;2.00;;;22.20;51.60;;;;;;5021515;28;20272;-50
2023/07/31 00:53:17;;;;;;;3.30;1.80;;;22.10;52.10;;;;;;5025015;28;20528;-49
2023/07/31 00:55:44;;;;;;;4.70;1.87;;;21.90;52.30;;;;;;5026612;28;20248;-50
2023/07/31 00:58:09;;;;;;;3.03;1.83;;;21.90;52.30;;;;;;5019646;28;20197;-50
2023/07/31 01:00:35;;;;;;;5.23;2.73;;;22.00;52.20;;;;;;5024312;28;20522;-50
2023/07/31 01:03:01;;;;;;;3.77;2.00;;;22.00;52.10;;;;;;5025379;28;20189;-51
2023/07/31 01:06:18;;;;;;;2.60;1.70;;;22.10;52.20;;;;;;5021208;28;20668;-49
2023/07/31 01:09:04;;;;;;;1.87;1.63;;;22.10;52.10;;;;;;4999038;28;20657;-47
2023/07/31 01:11:36;;;;;;;3.13;2.23;;;22.10;52.30;;;;;;5030619;28;20428;-49
2023/07/31 01:14:02;;;;;;;2.23;1.80;;;22.10;52.40;;;;;;5031110;28;20543;-50
2023/07/31 01:16:28;;;;;;;3.23;2.27;;;22.00;52.60;;;;;;5028071;28;20817;-48
2023/07/31 01:18:54;;;;;;;3.23;1.83;;;22.00;52.70;;;;;;5026216;28;20431;-47
2023/07/31 01:21:36;;;;;;;3.73;2.53;;;21.90;52.70;;;;;;5022295;28;20660;-48
2023/07/31 01:24:07;;;;;;;3.10;1.97;;;21.80;52.80;;;;;;5021241;28;20193;-45
2023/07/31 01:26:38;;;;;;;5.20;1.90;;;21.80;53.50;;;;;;5018673;28;20554;-46
2023/07/31 01:29:14;;;;;;;6.00;3.27;;;21.90;55.00;;;;;;5020174;28;20463;-47
2023/07/31 01:31:41;;;;;;;2.63;1.80;;;22.20;55.80;;;;;;5025286;28;20941;-49
2023/07/31 01:34:09;;;;;;;2.93;1.47;;;22.50;56.30;;;;;;5031470;28;20452;-49
2023/07/31 01:36:35;;;;;;;3.67;2.07;;;22.70;55.40;;;;;;5023698;28;20491;-49
2023/07/31 01:39:03;;;;;;;2.00;1.80;;;22.90;54.90;;;;;;5022102;28;20436;-49
2023/07/31 01:41:28;;;;;;;2.00;1.60;;;23.10;54.40;;;;;;5025382;28;20326;-46
2023/07/31 01:43:54;;;;;;;3.27;1.70;;;23.20;53.70;;;;;;5026034;28;20880;-46
2023/07/31 01:46:19;;;;;;;3.40;2.03;;;23.30;53.30;;;;;;5027785;28;20189;-49
2023/07/31 01:48:45;;;;;;;3.00;1.70;;;23.30;52.90;;;;;;5021997;28;20628;-49
2023/07/31 01:51:10;;;;;;;1.70;1.57;;;23.10;52.50;;;;;;5020601;28;20209;-49
2023/07/31 01:53:36;;;;;;;3.93;1.70;;;23.10;53.70;;;;;;5017818;28;20193;-45
2023/07/31 01:56:01;;;;;;;3.13;1.77;;;23.10;52.70;;;;;;5024478;28;20688;-45
2023/07/31 01:58:27;;;;;;;2.20;2.00;;;23.10;53.40;;;;;;5019988;28;20193;-50
2023/07/31 02:00:53;;;;;;;2.37;1.63;;;23.20;53.00;;;;;;5022078;28;20196;-50
2023/07/31 02:03:18;;;;;;;2.10;1.90;;;23.30;53.00;;;;;;5016204;28;20218;-49
2023/07/31 02:05:48;;;;;;;1.70;1.60;;;23.50;52.90;;;;;;5019482;28;20705;-45
2023/07/31 02:08:14;;;;;;;3.30;1.80;;;23.60;52.70;;;;;;5017157;28;20220;-45
2023/07/31 02:10:39;;;;;;;1.47;1.37;;;23.70;52.40;;;;;;5015801;28;21519;-46
2023/07/31 02:13:05;;;;;;;7.57;1.70;;;23.70;52.50;;;;;;5016346;28;20193;-46
2023/07/31 02:20:21;;;;;;;1.90;1.67;;;23.90;51.80;;;;;;5016769;28;20238;-44
2023/07/31 02:22:46;;;;;;;4.10;1.90;;;23.90;51.90;;;;;;5023069;28;20204;-44
2023/07/31 02:25:12;;;;;;;1.97;1.77;;;24.00;51.80;;;;;;5024823;28;20199;-45
2023/07/31 02:27:38;;;;;;;1.73;1.50;;;24.00;51.60;;;;;;5028705;28;20283;-46
2023/07/31 02:30:03;;;;;;;2.70;1.53;;;24.00;51.70;;;;;;5026514;28;20181;-44
2023/07/31 02:32:29;;;;;;;3.80;2.17;;;24.10;51.70;;;;;;5021471;28;20298;-46
2023/07/31 02:34:54;;;;;;;3.60;1.83;;;24.10;51.50;;;;;;5024211;28;20190;-46
2023/07/31 02:37:20;;;;;;;4.50;1.90;;;24.10;51.40;;;;;;5018666;28;20229;-44
2023/07/31 02:39:46;;;;;;;2.50;1.93;;;24.10;51.40;;;;;;5022318;28;20188;-44
2023/07/31 02:42:12;;;;;;;1.97;1.47;;;24.20;51.40;;;;;;5022739;28;20302;-44
2023/07/31 02:44:38;;;;;;;4.83;2.67;;;24.20;51.30;;;;;;5022151;28;20284;-44
2023/07/31 02:47:03;;;;;;;1.63;1.40;;;24.20;51.20;;;;;;5019683;28;20846;-44
2023/07/31 02:49:29;;;;;;;1.67;1.50;;;24.20;51.10;;;;;;5018388;28;20185;-44
2023/07/31 02:51:54;;;;;;;2.30;1.63;;;24.30;50.90;;;;;;5016679;28;20565;-45
2023/07/31 02:54:21;;;;;;;1.50;1.37;;;24.30;50.80;;;;;;5023804;28;20307;-45
2023/07/31 02:56:47;;;;;;;2.97;1.80;;;24.20;50.40;;;;;;5022721;28;20231;-45
2023/07/31 02:59:13;;;;;;;2.73;2.00;;;24.10;50.40;;;;;;5023742;28;20440;-47
2023/07/31 03:01:39;;;;;;;1.60;1.50;;;24.00;50.60;;;;;;5022230;28;20502;-50
2023/07/31 03:04:04;;;;;;;2.17;1.90;;;24.00;50.80;;;;;;5024909;28;20181;-46
2023/07/31 03:06:30;;;;;;;4.20;1.70;;;24.00;50.70;;;;;;5016422;28;20611;-43
2023/07/31 03:08:56;;;;;;;1.60;1.50;;;24.00;50.60;;;;;;5024614;28;20193;-45
2023/07/31 03:11:21;;;;;;;2.23;1.90;;;24.00;50.30;;;;;;5016780;28;20282;-45
2023/07/31 03:13:47;;;;;;;1.70;1.60;;;23.90;50.50;;;;;;5019563;28;20824;-44
2023/07/31 03:16:13;;;;;;;3.27;2.03;;;23.90;50.30;;;;;;5020633;28;20258;-47
2023/07/31 03:18:38;;;;;;;1.83;1.70;;;23.80;50.30;;;;;;5022649;28;20859;-45
2023/07/31 03:21:04;;;;;;;2.17;1.70;;;23.70;50.80;;;;;;5016761;28;20190;-44
2023/07/31 03:23:30;;;;;;;2.00;1.90;;;23.60;51.00;;;;;;5017148;28;20550;-46
2023/07/31 03:26:00;;;;;;;3.10;1.93;;;23.60;51.10;;;;;;5016938;28;20454;-47
2023/07/31 03:28:26;;;;;;;5.73;2.20;;;23.60;50.80;;;;;;5026260;28;20391;-46
2023/07/31 03:30:52;;;;;;;2.40;1.73;;;23.50;50.10;;;;;;5023451;28;20995;-45
2023/07/31 03:33:18;;;;;;;1.97;1.37;;;23.50;51.20;;;;;;5018235;28;20190;-45
2023/07/31 03:35:44;;;;;;;2.03;1.57;;;23.60;51.30;;;;;;5018624;28;20468;-46
2023/07/31 03:38:09;;;;;;;2.43;1.60;;;23.70;51.50;;;;;;5017176;28;20205;-45
2023/07/31 03:40:35;;;;;;;5.23;2.20;;;23.80;51.20;;;;;;5023480;28;20710;-47
2023/07/31 03:43:00;;;;;;;4.93;1.70;;;23.50;50.40;;;;;;5021946;28;20220;-47
2023/07/31 03:45:26;;;;;;;4.40;1.90;;;23.60;51.30;;;;;;5018546;28;20822;-44
2023/07/31 03:47:51;;;;;;;2.80;2.00;;;23.60;50.80;;;;;;5025152;28;20205;-46
2023/07/31 03:50:17;;;;;;;1.80;1.70;;;23.50;49.90;;;;;;5023763;28;20197;-44
2023/07/31 03:52:43;;;;;;;3.13;1.67;;;23.40;51.20;;;;;;5025124;28;20716;-44
2023/07/31 03:55:08;;;;;;;3.03;2.20;;;23.50;51.40;;;;;;5034281;28;20237;-44
2023/07/31 03:57:34;;;;;;;4.30;2.10;;;23.50;49.90;;;;;;5027218;28;20605;-44
2023/07/31 03:59:59;;;;;;;4.43;2.17;;;23.50;50.60;;;;;;5028300;28;20180;-45
2023/07/31 04:02:25;;;;;;;3.30;2.00;;;23.40;50.60;;;;;;5021132;28;20200;-45
2023/07/31 04:04:51;;;;;;;1.93;1.83;;;23.40;49.60;;;;;;5019096;28;20567;-45
2023/07/31 04:07:16;;;;;;;4.40;1.97;;;23.10;49.10;;;;;;5018955;28;20205;-46
2023/07/31 04:09:42;;;;;;;4.23;2.10;;;22.60;50.20;;;;;;5021600;28;20199;-48
2023/07/31 04:12:07;;;;;;;3.33;1.83;;;22.20;50.90;;;;;;5014813;28;20198;-49
2023/07/31 04:14:33;;;;;;;3.53;2.07;;;21.80;51.80;;;;;;5020424;28;20216;-48
2023/07/31 04:16:58;;;;;;;2.30;2.07;;;21.70;52.10;;;;;;5017309;28;20220;-47
2023/07/31 04:19:24;;;;;;;2.90;1.97;;;21.30;52.90;;;;;;5019237;28;20182;-47
2023/07/31 04:21:50;;;;;;;4.87;2.20;;;21.10;53.70;;;;;;5018736;28;20784;-48
2023/07/31 04:24:15;;;;;;;3.53;2.00;;;21.00;54.20;;;;;;5023455;28;20206;-49
2023/07/31 04:26:41;;;;;;;5.90;2.13;;;21.00;54.20;;;;;;5027024;28;20197;-45
2023/07/31 04:29:16;;;;;;;3.20;2.20;;;21.10;53.80;;;;;;5028525;28;20193;-51
2023/07/31 04:31:42;;;;;;;2.37;2.17;;;21.10;54.20;;;;;;5048014;28;20197;-49
2023/07/31 04:34:07;;;;;;;2.47;2.00;;;21.00;54.30;;;;;;5036410;28;20452;-46
2023/07/31 04:36:34;;;;;;;3.70;2.30;;;20.90;54.60;;;;;;5029110;28;20232;-46
2023/07/31 04:39:00;;;;;;;2.47;2.27;;;21.00;54.70;;;;;;5026893;28;20197;-47
2023/07/31 04:41:25;;;;;;;2.23;1.90;;;21.10;54.50;;;;;;5016527;28;20458;-50
2023/07/31 04:43:51;;;;;;;2.80;1.77;;;21.20;54.40;;;;;;5028627;28;20450;-50
2023/07/31 04:46:17;;;;;;;2.53;1.90;;;21.20;54.10;;;;;;5025087;28;20220;-48
2023/07/31 04:48:43;;;;;;;3.20;2.00;;;21.40;54.10;;;;;;5026920;28;20197;-47
2023/07/31 04:51:09;;;;;;;3.67;2.27;;;21.30;53.90;;;;;;5019866;28;20197;-49
2023/07/31 04:53:35;;;;;;;1.93;1.53;;;21.40;54.00;;;;;;5019244;28;20276;-49
2023/07/31 04:56:01;;;;;;;2.73;2.10;;;21.40;53.50;;;;;;5031665;28;20971;-45
2023/07/31 04:58:26;;;;;;;8.33;2.30;;;21.40;53.50;;;;;;5014427;28;20436;-48
2023/07/31 05:00:52;;;;;;;5.10;2.80;;;21.50;53.50;;;;;;5019394;28;20196;-48
2023/07/31 05:03:17;;;;;;;4.37;2.23;;;21.60;53.30;;;;;;5017115;28;20252;-45
2023/07/31 05:05:43;;;;;;;5.03;2.23;;;21.60;53.20;;;;;;5017157;28;20204;-44
2023/07/31 05:08:09;;;;;;;3.23;2.40;;;21.60;53.40;;;;;;5016184;28;20186;-44
2023/07/31 05:10:34;;;;;;;2.40;1.97;;;21.70;53.50;;;;;;5030753;28;20239;-43
2023/07/31 05:13:00;;;;;;;3.30;2.07;;;21.80;53.50;;;;;;5031180;28;20193;-43
2023/07/31 05:15:26;;;;;;;3.53;2.07;;;21.80;53.30;;;;;;5029303;28;20200;-43
2023/07/31 05:17:52;;;;;;;8.10;2.50;;;21.70;53.40;;;;;;5029320;28;20567;-44
2023/07/31 05:20:17;;;;;;;7.93;2.83;;;21.70;55.40;;;;;;5020781;28;20447;-45
2023/07/31 05:22:43;;;;;;;4.90;2.33;;;21.70;54.50;;;;;;5018087;28;20277;-44
2023/07/31 05:25:09;;;;;;;4.40;2.03;;;21.80;54.50;;;;;;5024460;28;20204;-45
2023/07/31 05:27:34;;;;;;;4.90;2.10;;;22.10;54.40;;;;;;5023375;28;20868;-44
2023/07/31 05:30:00;;;;;;;3.60;1.80;;;22.30;53.80;;;;;;5026300;28;20268;-44
2023/07/31 05:32:26;;;;;;;4.17;2.60;;;22.40;52.90;;;;;;5015775;28;20197;-44
2023/07/31 05:34:52;;;;;;;7.33;2.00;;;22.60;53.00;;;;;;5029004;28;20192;-44
2023/07/31 05:37:18;;;;;;;5.40;2.30;;;22.70;52.50;;;;;;5020576;28;20228;-44
2023/07/31 05:39:44;;;;;;;2.87;1.73;;;22.70;52.10;;;;;;5025188;28;20809;-44
2023/07/31 05:42:09;;;;;;;3.93;2.47;;;22.50;52.10;;;;;;5019773;28;20219;-44
2023/07/31 05:44:35;;;;;;;2.80;2.00;;;22.40;52.40;;;;;;5025068;28;20189;-44
2023/07/31 05:47:00;;;;;;;1.73;1.50;;;22.30;52.50;;;;;;5024064;28;20696;-43
2023/07/31 05:49:26;;;;;;;3.67;2.27;;;22.30;52.40;;;;;;5034655;28;20203;-44
2023/07/31 05:51:51;;;;;;;5.07;2.40;;;22.30;52.30;;;;;;5022523;28;20255;-44
2023/07/31 05:54:17;;;;;;;4.40;2.10;;;22.30;52.30;;;;;;5017231;28;20260;-46
2023/07/31 05:56:43;;;;;;;3.53;2.20;;;22.00;52.60;;;;;;5024342;28;20240;-45
2023/07/31 05:59:10;;;;;;;2.47;2.27;;;22.10;52.90;;;;;;5021877;28;20197;-44
2023/07/31 06:01:35;;;;;;;1.70;1.60;;;22.10;52.80;;;;;;5019526;28;20239;-45
2023/07/31 06:04:02;;;;;;;3.50;1.83;;;22.00;52.90;;;;;;5023222;28;21384;-44
2023/07/31 06:06:28;;;;;;;2.13;1.93;;;22.10;53.20;;;;;;5023350;28;20197;-45
2023/07/31 06:08:53;;;;;;;2.77;2.13;;;22.10;53.10;;;;;;5037906;28;21041;-45
2023/07/31 06:11:20;;;;;;;2.80;2.20;;;22.30;52.60;;;;;;5018140;28;20323;-45
2023/07/31 06:13:47;;;;;;;2.13;1.93;;;22.10;52.70;;;;;;5031075;28;20594;-45
2023/07/31 06:16:13;;;;;;;3.03;1.70;;;22.10;52.80;;;;;;5019979;28;20867;-45
2023/07/31 06:18:39;;;;;;;2.60;2.20;;;22.00;53.10;;;;;;5022387;28;20477;-45
2023/07/31 06:21:05;;;;;;;4.43;2.20;;;21.90;53.10;;;;;;5016284;28;20197;-47
2023/07/31 06:23:31;;;;;;;3.63;2.07;;;21.90;52.90;;;;;;5024178;28;20232;-45
2023/07/31 06:25:56;;;;;;;2.50;2.13;;;22.10;53.00;;;;;;5025100;28;20197;-45
2023/07/31 06:28:30;;;;;;;3.17;2.10;;;22.20;52.60;;;;;;5029411;28;20197;-44
2023/07/31 06:31:00;;;;;;;4.07;2.20;;;22.30;52.70;;;;;;5021194;28;20209;-46
2023/07/31 06:33:26;;;;;;;4.60;2.40;;;22.30;52.70;;;;;;5025214;28;20549;-46
2023/07/31 06:35:52;;;;;;;11.03;2.53;;;22.40;52.80;;;;;;5023234;28;20571;-45
2023/07/31 06:38:24;;;;;;;2.93;2.03;;;22.40;52.70;;;;;;5030462;28;20200;-46
2023/07/31 06:40:49;;;;;;;3.43;2.10;;;22.30;53.40;;;;;;5033201;28;20193;-45
2023/07/31 06:43:15;;;;;;;4.87;1.70;;;22.30;53.40;;;;;;5033954;28;20513;-46
2023/07/31 06:45:41;;;;;;;2.80;2.07;;;22.30;53.40;;;;;;5023205;28;20194;-46
2023/07/31 06:48:06;;;;;;;2.93;1.90;;;22.30;53.60;;;;;;5022342;28;20204;-45
2023/07/31 06:50:32;;;;;;;3.97;2.37;;;22.30;53.80;;;;;;5030579;28;20189;-45
2023/07/31 06:52:58;;;;;;;2.17;1.97;;;22.40;53.20;;;;;;5032773;28;20197;-45
2023/07/31 06:55:24;;;;;;;3.80;2.67;;;22.60;52.70;;;;;;5032123;28;20691;-46
2023/07/31 06:57:52;;;;;;;2.53;2.20;;;22.60;52.60;;;;;;5032483;28;20225;-46
2023/07/31 07:00:19;;;;;;;3.00;1.83;;;22.60;52.00;;;;;;5023492;28;20915;-46
2023/07/31 07:02:46;;;;;;;5.73;2.57;;;22.80;52.60;;;;;;5037733;28;20472;-46
2023/07/31 07:05:12;;;;;;;3.30;2.47;;;22.90;52.00;;;;;;5025308;28;20903;-46
2023/07/31 07:07:37;;;;;;;5.17;2.00;;;23.00;51.60;;;;;;5032399;28;22003;-46
2023/07/31 07:10:03;;;;;;;3.80;2.33;;;23.20;51.60;;;;;;5032070;28;20194;-46
2023/07/31 07:12:30;;;;;;;2.80;2.03;;;23.40;50.90;;;;;;5032235;28;20188;-45
2023/07/31 07:14:57;;;;;;;5.47;2.50;;;23.40;50.70;;;;;;5032325;28;20447;-49
2023/07/31 07:17:23;;;;;;;4.93;2.00;;;23.60;50.80;;;;;;5028321;28;20507;-45
2023/07/31 07:19:49;;;;;;;3.43;1.83;;;23.80;50.20;;;;;;5031953;28;20528;-46
2023/07/31 07:22:14;;;;;;;4.27;2.20;;;23.80;50.00;;;;;;5028220;28;20595;-45
2023/07/31 07:24:40;;;;;;;2.83;2.00;;;23.70;49.40;;;;;;5032836;28;20209;-46
2023/07/31 07:27:06;;;;;;;3.80;1.90;;;23.90;49.80;;;;;;5026043;28;20630;-48
2023/07/31 07:29:33;;;;;;;6.63;2.13;;;24.10;49.30;;;;;;5023909;28;20181;-45
2023/07/31 07:31:59;;;;;;;2.10;1.80;;;24.20;48.60;;;;;;5031664;28;20193;-46
2023/07/31 07:34:27;;;;;;;5.40;2.20;;;24.20;48.60;;;;;;5031272;28;20440;-46
2023/07/31 07:36:53;;;;;;;3.40;1.70;;;24.30;48.10;;;;;;5026697;28;20224;-46
2023/07/31 07:39:18;;;;;;;5.50;2.40;;;24.00;48.20;;;;;;5029822;28;20519;-46
2023/07/31 07:41:44;;;;;;;3.93;2.30;;;24.10;48.70;;;;;;5029324;28;20439;-47
2023/07/31 07:44:09;;;;;;;3.40;1.70;;;24.20;48.60;;;;;;5024593;28;20668;-46
2023/07/31 07:46:35;;;;;;;5.40;2.40;;;24.20;48.20;;;;;;5030924;28;20198;-46
2023/07/31 07:49:01;;;;;;;3.20;2.40;;;24.10;48.10;;;;;;5031561;28;20190;-47
2023/07/31 07:51:26;;;;;;;3.87;2.10;;;24.30;48.40;;;;;;5030936;28;20201;-48
2023/07/31 07:53:52;;;;;;;6.33;2.53;;;24.30;47.80;;;;;;5023818;28;20206;-47
2023/07/31 07:56:18;;;;;;;4.40;1.90;;;24.30;47.90;;;;;;5031762;28;20229;-47
2023/07/31 07:58:43;;;;;;;4.23;2.27;;;24.40;48.20;;;;;;5028175;28;20213;-46
2023/07/31 08:01:09;;;;;;;7.73;2.40;;;24.30;48.20;;;;;;5017612;28;20285;-45
2023/07/31 08:03:34;;;;;;;5.30;2.37;;;24.30;48.10;;;;;;5015411;28;20205;-45
2023/07/31 08:06:00;;;;;;;4.20;2.30;;;24.20;48.30;;;;;;5028924;28;20196;-47
2023/07/31 08:08:27;;;;;;;5.77;2.43;;;24.40;48.80;;;;;;5024085;28;20201;-45
2023/07/31 08:10:53;;;;;;;4.93;2.10;;;24.50;48.30;;;;;;5025630;28;20440;-44
2023/07/31 08:13:18;;;;;;;6.50;2.33;;;24.50;48.70;;;;;;5029641;28;20515;-45
2023/07/31 08:15:44;;;;;;;7.80;2.57;;;24.60;48.10;;;;;;5025603;28;20240;-45
2023/07/31 08:18:11;;;;;;;4.97;2.70;;;24.70;47.80;;;;;;5025268;28;20211;-45
2023/07/31 08:20:37;;;;;;;3.23;2.30;;;24.80;47.20;;;;;;5027548;28;20197;-47
2023/07/31 08:23:03;;;;;;;5.17;2.70;;;24.80;46.70;;;;;;5026083;28;20511;-46
2023/07/31 08:25:28;;;;;;;6.40;2.50;;;24.60;46.00;;;;;;5027775;28;20196;-46
2023/07/31 08:27:55;;;;;;;7.97;3.37;;;24.40;45.60;;;;;;5048843;28;20429;-49
2023/07/31 08:30:21;;;;;;;4.83;2.67;;;24.50;46.80;;;;;;5030992;28;20718;-47
2023/07/31 08:32:47;;;;;;;4.90;2.47;;;24.50;46.90;;;;;;5018220;28;20491;-47
2023/07/31 08:35:12;;;;;;;4.50;2.17;;;24.40;46.10;;;;;;5023395;28;20200;-46
2023/07/31 08:37:38;;;;;;;5.23;2.13;;;24.30;46.70;;;;;;5024252;28;20230;-47
2023/07/31 08:40:05;;;;;;;5.70;2.83;;;24.40;47.00;;;;;;5020701;28;20193;-48
2023/07/31 08:42:31;;;;;;;2.93;2.57;;;24.70;46.90;;;;;;5026811;28;20469;-45
2023/07/31 08:44:59;;;;;;;3.27;2.30;;;25.20;45.60;;;;;;5023897;28;20474;-48
2023/07/31 08:47:26;;;;;;;8.67;3.27;;;25.40;45.00;;;;;;5017428;28;20470;-49
2023/07/31 08:49:54;;;;;;;4.10;2.83;;;25.70;45.40;;;;;;5022331;28;20516;-47
2023/07/31 08:52:20;;;;;;;2.43;1.97;;;26.00;45.40;;;;;;5023307;28;20445;-46
2023/07/31 08:54:45;;;;;;;3.47;2.03;;;26.40;45.00;;;;;;5019817;28;20537;-47
2023/07/31 08:57:12;;;;;;;8.37;2.90;;;26.40;42.80;;;;;;5014786;28;20264;-47
2023/07/31 08:59:38;;;;;;;5.60;2.40;;;26.30;43.80;;;;;;5015780;28;20703;-46
2023/07/31 09:02:08;;;;;;;3.47;2.57;;;26.50;43.60;;;;;;5024950;28;20763;-44
2023/07/31 09:04:34;;;;;;;4.13;2.50;;;26.60;42.80;;;;;;5020771;28;20440;-44
2023/07/31 09:07:04;;;;;;;6.03;2.87;;;26.60;42.30;;;;;;5023373;28;20483;-44
2023/07/31 09:09:30;;;;;;;3.43;2.40;;;26.70;43.10;;;;;;5022554;28;20443;-44
2023/07/31 09:11:58;;;;;;;8.33;2.40;;;26.80;43.20;;;;;;5018029;28;20448;-44
2023/07/31 09:14:25;;;;;;;5.23;2.30;;;26.80;42.90;;;;;;5018738;28;20431;-44
2023/07/31 09:16:53;;;;;;;3.50;2.27;;;26.70;43.00;;;;;;5012677;28;20571;-45
2023/07/31 09:19:36;;;;;;;3.97;2.40;;;26.60;42.00;;;;;;5022163;28;20501;-45
2023/07/31 09:22:02;;;;;;;4.03;1.70;;;26.80;42.40;;;;;;5018959;28;20888;-46
2023/07/31 09:24:30;;;;;;;5.00;2.20;;;26.70;42.30;;;;;;5023033;28;20437;-47
2023/07/31 09:26:56;;;;;;;3.13;2.17;;;26.70;42.90;;;;;;5015988;28;20219;-45
2023/07/31 09:29:23;;;;;;;4.43;2.10;;;26.70;42.40;;;;;;5023185;28;20831;-45
2023/07/31 09:31:48;;;;;;;3.90;2.40;;;26.90;42.40;;;;;;5022972;28;20447;-48
2023/07/31 09:34:14;;;;;;;5.80;2.93;;;27.00;41.60;;;;;;5023168;28;20786;-46
2023/07/31 09:36:41;;;;;;;6.20;2.50;;;26.80;42.20;;;;;;5015136;28;20669;-46
2023/07/31 09:39:09;;;;;;;3.93;2.40;;;26.60;42.90;;;;;;5011172;28;20189;-48
2023/07/31 09:41:40;;;;;;;2.77;2.37;;;26.50;42.30;;;;;;5024621;28;20997;-48
2023/07/31 09:44:05;;;;;;;5.10;2.80;;;26.30;43.50;;;;;;5019713;28;20524;-46
2023/07/31 09:46:31;;;;;;;5.00;2.30;;;26.30;43.00;;;;;;5029104;28;20530;-45
2023/07/31 09:49:10;;;;;;;4.90;2.40;;;26.50;43.10;;;;;;5023206;28;20190;-44
2023/07/31 09:51:42;;;;;;;5.53;2.70;;;26.50;43.10;;;;;;5022147;28;20220;-44
2023/07/31 09:54:12;;;;;;;5.23;2.03;;;26.20;43.20;;;;;;5018410;28;20505;-44
2023/07/31 09:56:45;;;;;;;2.87;2.57;;;26.20;43.90;;;;;;5014407;28;20487;-47
2023/07/31 09:59:13;;;;;;;4.33;2.33;;;26.20;43.70;;;;;;5026206;28;20526;-45
2023/07/31 10:01:41;;;;;;;4.80;2.27;;;26.40;43.50;;;;;;5024181;28;20435;-45
2023/07/31 10:04:09;;;;;;;5.40;2.87;;;26.40;44.30;;;;;;5025381;28;20938;-43
2023/07/31 10:06:36;;;;;;;4.90;2.37;;;26.20;43.20;;;;;;5018801;28;20448;-43
2023/07/31 10:09:05;;;;;;;2.93;2.43;;;26.20;43.50;;;;;;5028376;28;20507;-44
2023/07/31 10:11:38;;;;;;;6.00;2.97;;;26.20;43.60;;;;;;5022131;28;20445;-44
2023/07/31 10:14:07;;;;;;;3.23;2.07;;;26.50;43.60;;;;;;5025804;28;20443;-44
2023/07/31 10:16:33;;;;;;;4.27;2.33;;;26.40;43.30;;;;;;5022862;28;21011;-43
2023/07/31 10:18:59;;;;;;;3.80;2.10;;;26.60;43.00;;;;;;5039131;28;20447;-46
2023/07/31 10:21:25;;;;;;;4.73;2.63;;;26.40;42.90;;;;;;5023853;28;20788;-48
2023/07/31 10:23:51;;;;;;;2.80;2.50;;;26.10;43.40;;;;;;5027593;28;20201;-46
2023/07/31 10:26:18;;;;;;;4.37;2.40;;;26.10;43.70;;;;;;5013983;28;20206;-45
2023/07/31 10:28:46;;;;;;;4.40;2.57;;;26.10;44.20;;;;;;5028450;28;20440;-44
2023/07/31 10:31:12;;;;;;;5.10;2.70;;;26.10;43.90;;;;;;5029845;28;20451;-48
2023/07/31 10:33:38;;;;;;;2.90;1.90;;;26.30;44.10;;;;;;5028798;28;20459;-51
2023/07/31 10:36:20;;;;;;;6.60;2.13;;;26.50;43.60;;;;;;5027023;28;20271;-48
2023/07/31 10:38:48;;;;;;;4.10;3.00;;;26.70;42.70;;;;;;5018734;28;20448;-47
2023/07/31 10:41:14;;;;;;;4.40;2.40;;;26.60;43.30;;;;;;5011935;28;20453;-49
2023/07/31 10:43:40;;;;;;;5.13;2.37;;;26.50;43.10;;;;;;5020321;28;20451;-48
2023/07/31 10:46:13;;;;;;;5.93;2.50;;;26.40;43.20;;;;;;5015293;28;20225;-46
2023/07/31 10:48:41;;;;;;;7.77;2.43;;;26.60;43.50;;;;;;5013641;28;20222;-46
2023/07/31 10:51:15;;;;;;;5.67;2.70;;;26.70;43.50;;;;;;5023923;28;20440;-49
2023/07/31 10:53:41;;;;;;;3.00;2.47;;;26.80;42.60;;;;;;5018030;28;20543;-46
2023/07/31 10:56:09;;;;;;;3.27;2.27;;;26.90;42.30;;;;;;5013328;28;20585;-46
2023/07/31 10:58:37;;;;;;;5.23;2.30;;;26.60;42.70;;;;;;5014970;28;20500;-47
2023/07/31 11:01:04;;;;;;;3.37;2.20;;;26.40;43.00;;;;;;5015283;28;20849;-47
2023/07/31 11:03:42;;;;;;;4.70;2.90;;;26.40;42.80;;;;;;5027640;28;20428;-47
2023/07/31 11:06:08;;;;;;;5.47;2.97;;;26.70;43.50;;;;;;5015225;28;20455;-47
2023/07/31 11:08:36;;;;;;;2.50;2.10;;;26.80;42.50;;;;;;5032020;28;20440;-49
2023/07/31 11:11:01;;;;;;;8.60;2.63;;;26.70;42.80;;;;;;5021871;28;20327;-47
2023/07/31 11:13:28;;;;;;;6.10;2.67;;;26.80;42.70;;;;;;5029209;28;20470;-47
2023/07/31 11:15:53;;;;;;;6.20;2.77;;;26.90;43.10;;;;;;5013608;28;20799;-46
2023/07/31 11:18:19;;;;;;;5.13;2.70;;;27.20;42.40;;;;;;5027970;28;20451;-47
2023/07/31 11:20:45;;;;;;;4.57;2.80;;;27.20;42.10;;;;;;5026480;28;20633;-47
2023/07/31 11:23:11;;;;;;;4.13;2.80;;;27.30;41.20;;;;;;5018825;28;20269;-48
2023/07/31 11:25:41;;;;;;;5.80;2.87;;;27.50;41.40;;;;;;5016897;28;20205;-45
2023/07/31 11:28:11;;;;;;;4.80;2.93;;;27.80;42.00;;;;;;5032523;28;20420;-47
2023/07/31 11:30:38;;;;;;;4.33;2.47;;;28.00;41.50;;;;;;5024875;28;20494;-47
2023/07/31 11:33:05;;;;;;;4.90;3.03;;;27.80;40.80;;;;;;5031155;28;20424;-46
2023/07/31 11:35:33;;;;;;;6.87;2.40;;;27.80;40.90;;;;;;5029458;28;20444;-46
2023/07/31 11:37:59;;;;;;;2.90;2.60;;;28.00;41.40;;;;;;5030252;28;20814;-47
2023/07/31 11:40:29;;;;;;;4.57;2.70;;;28.20;40.60;;;;;;5023524;28;20955;-44
2023/07/31 11:42:58;;;;;;;5.80;2.90;;;28.30;40.40;;;;;;5017726;28;20849;-44
2023/07/31 11:45:30;;;;;;;5.60;3.03;;;28.30;40.00;;;;;;5018303;28;20961;-43
2023/07/31 11:47:56;;;;;;;3.10;2.60;;;28.20;40.00;;;;;;5027298;28;20555;-47
2023/07/31 11:50:25;;;;;;;4.93;3.10;;;28.10;40.60;;;;;;5033288;28;20448;-46
2023/07/31 11:52:57;;;;;;;6.40;3.07;;;28.10;40.10;;;;;;5017667;28;20460;-45
2023/07/31 11:55:23;;;;;;;5.43;2.33;;;27.80;40.40;;;;;;5034218;28;20471;-47
2023/07/31 11:57:50;;;;;;;3.53;2.70;;;27.60;41.00;;;;;;5032568;28;20523;-47
2023/07/31 12:00:16;;;;;;;4.10;2.90;;;27.40;40.90;;;;;;5023009;28;20433;-46
2023/07/31 12:02:42;;;;;;;3.40;2.43;;;27.20;41.80;;;;;;5025777;28;20440;-46
2023/07/31 12:05:12;;;;;;;3.97;2.80;;;27.20;41.60;;;;;;5030800;28;20831;-47
2023/07/31 12:07:51;;;;;;;6.07;3.00;;;27.20;42.10;;;;;;5030804;28;20432;-46
2023/07/31 12:10:30;;;;;;;6.10;3.03;;;27.30;42.20;;;;;;5020067;28;20444;-46
2023/07/31 12:13:03;;;;;;;4.67;2.67;;;27.20;41.90;;;;;;5025785;28;20805;-45
2023/07/31 12:15:43;;;;;;;6.60;2.90;;;27.00;42.00;;;;;;5012830;28;20551;-50
2023/07/31 12:18:11;;;;;;;2.70;2.50;;;27.10;42.60;;;;;;5015220;28;20464;-49
2023/07/31 12:20:45;;;;;;;9.10;4.30;;;27.20;42.40;;;;;;5028072;28;20902;-47
2023/07/31 12:23:18;;;;;;;5.10;2.70;;;26.90;42.30;;;;;;5020454;28;20863;-48
2023/07/31 12:25:44;;;;;;;7.63;3.57;;;27.00;42.70;;;;;;5028052;28;20843;-46
2023/07/31 12:28:13;;;;;;;7.23;3.03;;;27.10;42.50;;;;;;5030778;28;20444;-46
2023/07/31 12:30:40;;;;;;;3.77;2.63;;;27.10;41.90;;;;;;5020326;28;20320;-45
2023/07/31 12:33:12;;;;;;;3.90;2.67;;;27.20;41.90;;;;;;5022476;28;20499;-47
2023/07/31 12:35:43;;;;;;;5.73;2.93;;;27.00;42.40;;;;;;5024005;28;20440;-47
2023/07/31 12:38:09;;;;;;;5.67;2.80;;;26.80;43.00;;;;;;5024081;28;20959;-49
2023/07/31 12:40:38;;;;;;;4.13;2.63;;;26.80;42.60;;;;;;5027350;28;20471;-46
2023/07/31 12:43:03;;;;;;;5.23;2.80;;;26.80;43.30;;;;;;5019686;28;20621;-48
2023/07/31 12:45:30;;;;;;;3.97;2.93;;;27.00;42.90;;;;;;5021505;28;20485;-46
2023/07/31 12:47:56;;;;;;;4.30;2.60;;;27.10;42.60;;;;;;5021910;28;20202;-46
2023/07/31 12:50:23;;;;;;;5.90;2.77;;;27.20;42.70;;;;;;5024156;28;20444;-51
2023/07/31 12:52:49;;;;;;;4.23;2.50;;;27.10;43.20;;;;;;5018867;28;20473;-47